Aiolos — V7LT3 — position and weather

sailwx.info

Track history (hours):
 
Tides and Currents Weather Stations Pressure Air Temp Water Temp Dewpoint Dewpoint Depression Visibility Wind Speed Wind Dir Waves Ship Positions

Aiolos

Last reported at 2018-Aug-08 11:42 UTC. Time now 2018-Aug-16 08:46 UTC.
Position N 01°21' E 103°18'.

Length 184 m; draft 10.7 m.

Type: Ship. MMSI: 538002804.

Date/timePositionNaut miles runAvg speedWind from/ knotsBaromVisibWave heightAir tempDewpointWater temp
2018-Aug-08 11:42N 01°21' E 103°18'313.1
2018-Aug-08 11:28N 01°19' E 103°21'612.3
2018-Aug-08 11:00N 01°15' E 103°25'713.6
2018-Aug-08 10:30N 01°13' E 103°31'713.7
2018-Aug-08 09:59N 01°12' E 103°38'3 7.1
2018-Aug-08 09:30N 01°12' E 103°42'0 0.1
2018-Aug-08 08:58N 01°12' E 103°41'0 0.0
2018-Aug-08 08:30N 01°12' E 103°41'0 0.0
2018-Aug-08 07:59N 01°12' E 103°41'0 0.0
2018-Aug-08 07:27N 01°12' E 103°41'0 0.1
2018-Aug-08 06:58N 01°12' E 103°41'0 0.1
2018-Aug-08 06:27N 01°12' E 103°41'0 0.0
2018-Aug-08 05:59N 01°12' E 103°41'0 0.0
2018-Aug-08 05:30N 01°12' E 103°41'0 0.1
2018-Aug-08 04:58N 01°12' E 103°42'0 0.1
2018-Aug-08 04:24N 01°12' E 103°41'0 0.0
2018-Aug-08 03:59N 01°12' E 103°41'0 0.1
2018-Aug-08 03:28N 01°12' E 103°41'0 0.2
2018-Aug-08 02:59N 01°12' E 103°42'0 0.2
2018-Aug-08 02:28N 01°12' E 103°42'0 0.0
2018-Aug-08 02:00N 01°12' E 103°42'0 0.0
2018-Aug-08 01:30N 01°12' E 103°42'0 0.0
2018-Aug-08 01:00N 01°12' E 103°42'0 0.0
2018-Aug-08 00:28N 01°12' E 103°42'0 0.0
2018-Aug-07 23:58N 01°12' E 103°42'0 0.0
2018-Aug-07 23:30N 01°12' E 103°42'0 0.1
2018-Aug-07 22:59N 01°12' E 103°42'1 1.3
2018-Aug-07 22:30N 01°12' E 103°41'3 6.6
2018-Aug-07 22:00N 01°12' E 103°38'3 6.3
2018-Aug-07 21:31N 01°12' E 103°35'3 6.4
2018-Aug-07 21:00N 01°10' E 103°32'3 6.5
2018-Aug-07 20:30N 01°10' E 103°29'4 7.5
2018-Aug-07 19:59N 01°12' E 103°25'4 7.6
2018-Aug-07 19:30N 01°14' E 103°22'611.3
2018-Aug-07 18:59N 01°17' E 103°18'612.4
2018-Aug-07 18:30N 01°21' E 103°13'1211.5
2018-Aug-07 17:29N 01°28' E 103°03'812.1
2018-Aug-07 16:50N 01°32' E 102°57'  
Track history (hours):
 
Tides and Currents Weather Stations Pressure Air Temp Water Temp Dewpoint Dewpoint Depression Visibility Wind Speed Wind Dir Waves Ship Positions

Aiolos

Last reported at 2018-Aug-08 11:42 UTC. Time now 2018-Aug-16 08:46 UTC.
Position N 01°21' E 103°18'.

Length 184 m; draft 10.7 m.

Type: Ship. MMSI: 538002804.

Date/timePositionNaut miles runAvg speedWind from/ knotsBaromVisibWave heightAir tempDewpointWater temp
2018-Aug-08 11:42N 01°21' E 103°18'313.1
2018-Aug-08 11:28N 01°19' E 103°21'612.3
2018-Aug-08 11:00N 01°15' E 103°25'713.6
2018-Aug-08 10:30N 01°13' E 103°31'713.7
2018-Aug-08 09:59N 01°12' E 103°38'3 7.1
2018-Aug-08 09:30N 01°12' E 103°42'0 0.1
2018-Aug-08 08:58N 01°12' E 103°41'0 0.0
2018-Aug-08 08:30N 01°12' E 103°41'0 0.0
2018-Aug-08 07:59N 01°12' E 103°41'0 0.0
2018-Aug-08 07:27N 01°12' E 103°41'0 0.1
2018-Aug-08 06:58N 01°12' E 103°41'0 0.1
2018-Aug-08 06:27N 01°12' E 103°41'0 0.0
2018-Aug-08 05:59N 01°12' E 103°41'0 0.0
2018-Aug-08 05:30N 01°12' E 103°41'0 0.1
2018-Aug-08 04:58N 01°12' E 103°42'0 0.1
2018-Aug-08 04:24N 01°12' E 103°41'0 0.0
2018-Aug-08 03:59N 01°12' E 103°41'0 0.1
2018-Aug-08 03:28N 01°12' E 103°41'0 0.2
2018-Aug-08 02:59N 01°12' E 103°42'0 0.2
2018-Aug-08 02:28N 01°12' E 103°42'0 0.0
2018-Aug-08 02:00N 01°12' E 103°42'0 0.0
2018-Aug-08 01:30N 01°12' E 103°42'0 0.0
2018-Aug-08 01:00N 01°12' E 103°42'0 0.0
2018-Aug-08 00:28N 01°12' E 103°42'0 0.0
2018-Aug-07 23:58N 01°12' E 103°42'0 0.0
2018-Aug-07 23:30N 01°12' E 103°42'0 0.1
2018-Aug-07 22:59N 01°12' E 103°42'1 1.3
2018-Aug-07 22:30N 01°12' E 103°41'3 6.6
2018-Aug-07 22:00N 01°12' E 103°38'3 6.3
2018-Aug-07 21:31N 01°12' E 103°35'3 6.4
2018-Aug-07 21:00N 01°10' E 103°32'3 6.5
2018-Aug-07 20:30N 01°10' E 103°29'4 7.5
2018-Aug-07 19:59N 01°12' E 103°25'4 7.6
2018-Aug-07 19:30N 01°14' E 103°22'611.3
2018-Aug-07 18:59N 01°17' E 103°18'612.4
2018-Aug-07 18:30N 01°21' E 103°13'1211.5
2018-Aug-07 17:29N 01°28' E 103°03'812.1
2018-Aug-07 16:50N 01°32' E 102°57'  

Dump ship's entire track history